Pos.Doss.NomPrenomTempsVit.Moy.Allure Pos. catgCatgorie Points Club
1 607 VAN HEE THOMAS 00:37:16 17.39 00:03:27 1Séniors 1000
2 840 LAMOLINE GUILLAUME 00:37:32 17.26 00:03:29 2Séniors 996
3 246 MÉMURLIN CHRISTOPHE 00:37:43 17.18 00:03:30 3Séniors 992 TEAM SOMJA
4 797 HENNUY AMAURY 00:38:22 16.89 00:03:33 4Séniors 988
5 755 ROCKES STÉPHANE 00:38:27 16.85 00:03:34 5Séniors 983
6 3 SCHOLZEN CHRISTOPHE 00:38:54 16.66 00:03:36 6Séniors 979 TEAM SOMJA
7 2 PETRY CEDRIC 00:39:10 16.54 00:03:38 7Séniors 975 RFCL
8 826 ALASANE RAFIOU 00:40:22 16.05 00:03:44 1Espoirs H 971
9 679 DAISOMONT GILLES 00:41:36 15.58 00:03:51 8Séniors 967
10 773 VITA GAETANO 00:41:38 15.56 00:03:51 1Vétérans 1 962
11 170 DOYEN DAVID 00:41:44 15.53 00:03:52 1Vétérans 2 958 SER ATHL
12 384 VAN DEN BLINK ERIC 00:41:54 15.47 00:03:53 2Vétérans 1 954 SER ATHL
13 832 CORSWAREM PIERRE-HENRI 00:42:05 15.4 00:03:54 9Séniors 950
14 691 DEWARD MARVIN 00:42:13 15.35 00:03:55 10Séniors 946
15 864 BEINE EMILIEN 00:42:56 15.09 00:03:59 2Espoirs H 942
16 202 MERCIADRI LUCA 00:43:01 15.06 00:03:59 11Séniors 938
17 393 PEREZ RAPHAEL 00:43:09 15.02 00:03:60 12Séniors 933
18 841 OLEFS ALPHA 00:43:21 14.95 00:04:01 13Séniors 929
19 735 WISLET CHRISTOPHE 00:43:23 14.94 00:04:01 2Vétérans 2 925
20 68 CHUDYBA JEAN-MARIE 00:43:27 14.91 00:04:01 3Vétérans 2 921 RUN IN LIEGE
21 820 CHOPART JULIEN 00:43:37 14.86 00:04:02 14Séniors 917
22 386 DONNEAU PIERRE 00:43:56 14.75 00:04:04 15Séniors 912
23 92 BUCKINX ETIENNE 00:43:59 14.73 00:04:04 4Vétérans 2 908 RFCL
24 614 BOUCKAERT STEPHANE 00:44:06 14.69 00:04:05 16Séniors 904
25 842 WUILLAUME LAURENT 00:44:39 14.51 00:04:08 17Séniors 900
26 780 DEGHAYE BERNARD 00:44:53 14.44 00:04:09 5Vétérans 2 896
27 623 COLLET DENIS 00:44:53 14.44 00:04:09 3Vétérans 1 892
28 377 RAPAGNA ANTONIO 00:45:09 14.35 00:04:11 1Vétérans 3 888
29 744 LICCIARDI LILLO 00:45:10 14.35 00:04:11 6Vétérans 2 883
30 812 BAGUETTE ELODIE 00:45:27 14.26 00:04:13 1Dames 879
31 814 BONNIVERT ARNAUD 00:45:28 14.25 00:04:13 18Séniors 875
32 631 BAKAERT ALAN 00:45:36 14.21 00:04:13 19Séniors 871
33 620 TOPALBEGOVIC AJLA 00:45:42 14.18 00:04:14 2Dames 867
34 615 BOUCKAERT BENJAMIN 00:45:50 14.14 00:04:15 20Séniors 862
35 32 RIGO MICHEL 00:45:56 14.11 00:04:15 4Vétérans 1 858
36 400 JORIS JONATHAN 00:45:59 14.09 00:04:15 21Séniors 854 TEAM SOMJA
37 781 MOSSADEQ RAYAN 00:46:01 14.08 00:04:16 22Séniors 850
38 456 NIHANT FABIAN 00:46:02 14.08 00:04:16 7Vétérans 2 846
39 187 WYDOUW LUDOVIC 00:46:02 14.08 00:04:16 23Séniors 842
40 240 JEUKENS MICHEL 00:46:02 14.08 00:04:16 5Vétérans 1 838
41 673 VERITER VANESSA 00:46:05 14.06 00:04:16 1Ainées 1 833
42 373 LECOQ FRANCOIS 00:46:21 13.98 00:04:18 3Espoirs H 829 JIA
43 805 FRANCQ SEBASTIEN 00:46:27 13.95 00:04:18 24Séniors 825
44 618 DESAINTES PIERRE-YVES 00:46:29 13.94 00:04:18 6Vétérans 1 821
45 66 DAMBLON PATRICK 00:46:35 13.91 00:04:19 8Vétérans 2 817 CHALLENGE AVENIR
46 40 CANALES ALBERTO 00:46:35 13.91 00:04:19 2Vétérans 3 812
47 821 PIRSON ERWIN 00:46:41 13.88 00:04:19 25Séniors 808
48 360 WEERTS JEAN 00:46:57 13.8 00:04:21 7Vétérans 1 804
49 391 CORIN EDWIN 00:47:27 13.66 00:04:24 26Séniors 800
50 723 PHILIS LAMBRINY 00:47:29 13.65 00:04:24 2Ainées 1 796
51 689 DEROUAUX SOPHIE 00:47:33 13.63 00:04:24 3Ainées 1 792
52 794 DONNEAU BENOIT 00:48:22 13.4 00:04:29 27Séniors 788
53 822 PROFITA PIERRE 00:48:27 13.37 00:04:29 28Séniors 783
54 281 FREDERICH DOMINIQUE 00:48:28 13.37 00:04:29 1Ainées 2 779 HERV AC
55 61 DETHIER ALAIN 00:48:33 13.35 00:04:30 9Vétérans 2 775
56 168 KNAPEN LAURENT 00:48:42 13.31 00:04:31 3Vétérans 3 771 SERAING ATHLÉTIQUE
57 697 GIGLIO GASPARE 00:48:42 13.31 00:04:31 10Vétérans 2 767
58 634 DELOGE JEAN FRANCOIS 00:48:45 13.29 00:04:31 8Vétérans 1 762
59 695 FAVEYTS JEAN-MARC 00:48:54 13.25 00:04:32 11Vétérans 2 758
60 627 JOST DAMIEN 00:48:59 13.23 00:04:32 29Séniors 754
61 630 TATON YOURI 00:48:59 13.23 00:04:32 30Séniors 750
62 806 COX DIDIER 00:49:01 13.22 00:04:32 31Séniors 746
63 807 LAHAYE OLIVIER 00:49:04 13.21 00:04:33 9Vétérans 1 742
64 776 BOVY MARGAUX 00:49:10 13.18 00:04:33 3Dames 738
65 24 GUILLIAMS MAUD 00:49:11 13.18 00:04:33 4Dames 733 JOG IN ATTITUDE
66 676 BAILLY LUC 00:49:39 13.05 00:04:36 12Vétérans 2 729
67 78 MULLENS LAURENT 00:50:03 12.95 00:04:38 10Vétérans 1 725
68 452 EUGENE SEBASTIEN 00:50:12 12.91 00:04:39 11Vétérans 1 721
69 790 LEDENT QUENTIN 00:50:23 12.86 00:04:40 32Séniors 717
70 720 NATALIS ROMAIN 00:50:24 12.86 00:04:40 33Séniors 712
71 39 RADI GIOVANNI 00:50:32 12.82 00:04:41 34Séniors 708
72 294 HEINRICHS GREGORY 00:50:38 12.8 00:04:41 35Séniors 704 TEAM SOMJA
73 605 DELHOUGNE ANNE SOPHIE 00:50:43 12.78 00:04:42 5Dames 700
74 47 HERZET CLAUDE 00:51:00 12.71 00:04:43 4Vétérans 3 696
75 215 SOMJA JEAN-PHILIPPE 00:51:09 12.67 00:04:44 36Séniors 692 TEAM SOMJA
76 870 NICOLAYE NATHAN 00:51:24 12.61 00:04:46 4Espoirs H 688
77 854 DARCIS JOEL 00:51:29 12.59 00:04:46 37Séniors 683
78 632 OMAZIC PIERRE 00:51:36 12.56 00:04:47 12Vétérans 1 679
79 862 HANUSSEK HERVE 00:51:46 12.52 00:04:48 38Séniors 675
80 803 GILLES GENEVIEVE 00:51:47 12.51 00:04:48 4Ainées 1 671
81 865 HEIJENS CINDY 00:51:56 12.48 00:04:49 5Ainées 1 667
82 10001 CLAROS FABIO 00:52:06 12.44 00:04:49 39Séniors 662
83 166 LEFORT PIERRE 00:52:19 12.39 00:04:51 13Vétérans 1 658 AMC
84 754 IM SOYOUNG 00:52:31 12.34 00:04:52 6Dames 654
85 123 PISCART FRANCOISE 00:52:40 12.3 00:04:53 6Ainées 1 650
86 834 HULS JULIAN 00:52:51 12.26 00:04:54 40Séniors 646
87 855 POLMANS REGINALD 00:52:53 12.25 00:04:54 41Séniors 642
88 766 DEVLAEMINCK MARC 00:53:12 12.18 00:04:56 14Vétérans 1 638
89 749 DEDRY CHRISTOPHE 00:53:13 12.18 00:04:56 15Vétérans 1 633
90 282 HILDERSON LUC 00:53:34 12.1 00:04:58 5Vétérans 3 629
91 120 FERNANDEZ HERRERA BERNARD 00:53:42 12.07 00:04:58 16Vétérans 1 625 SODEXO RUN
92 760 SIMON BRUNO 00:53:45 12.06 00:04:59 6Vétérans 3 621
93 782 LEGERE RENAUD 00:53:49 12.04 00:04:59 42Séniors 617
94 18 STEIMES NATHALIE 00:53:57 12.01 00:04:60 7Ainées 1 612 SERAING ATHLETISME
95 85 TRAN XUAN-MAI 00:53:59 12 00:04:60 8Ainées 1 608 ACBBS
96 690 DEROUAUX VIRGINIE 00:54:18 11.93 00:05:02 9Ainées 1 604
97 624 JENNEN VICTORIA 00:54:26 11.9 00:05:02 1Espoirs D 600
98 10253 GRAINDORGE ERIC 00:55:07 11.76 00:05:06 13Vétérans 2 596
99 286 VOLON PATRICK 00:55:13 11.74 00:05:07 7Vétérans 3 592 MPW
100 709 LAMBERT MICKAEL 00:55:15 11.73 00:05:07 43Séniors 588
101 700 GODBILLE RODOLPHE 00:55:21 11.71 00:05:08 44Séniors 583
102 831 TONN DIDIER 00:55:23 11.7 00:05:08 17Vétérans 1 579
103 829 JALLET LAURENT 00:55:32 11.67 00:05:09 45Séniors 575
104 365 MAROT BERNARD 00:55:37 11.65 00:05:09 8Vétérans 3 571
105 737 SAN GIOVANI WALTER 00:55:42 11.63 00:05:09 14Vétérans 2 567
106 680 ALLEPUZ FUSTER PAULA 00:55:44 11.63 00:05:010 7Dames 562
107 698 GILLET GEOFFRAY 00:55:45 11.62 00:05:010 46Séniors 558
108 817 COLABELLA MARC 00:55:47 11.62 00:05:010 15Vétérans 2 554
109 378 HERTOGEN WILLY 00:55:58 11.58 00:05:11 1Vétérans 4 550
110 810 SCATTONE GREGORY 00:56:06 11.55 00:05:12 47Séniors 546
111 816 DA-CAS RAPHAEL 00:56:14 11.52 00:05:12 48Séniors 542
112 255 DASSY LUDOVIC 00:56:28 11.48 00:05:14 49Séniors 538
113 860 BORUS CLAIRE 00:56:32 11.46 00:05:14 1Ainées 3 533
114 625 SCHIFANO ROGER 00:56:40 11.44 00:05:15 18Vétérans 1 529
115 226 EGGEN RENE 00:56:43 11.43 00:05:15 2Vétérans 4 525
116 678 CULOT JEAN YVES 00:56:45 11.42 00:05:15 16Vétérans 2 521
117 677 CHARLIER PHILIPPE 00:56:53 11.39 00:05:16 17Vétérans 2 517
118 606 DELHOUGNE BERNARD 00:57:02 11.36 00:05:17 18Vétérans 2 512
119 364 MORANA EDOUARD 00:57:25 11.29 00:05:19 19Vétérans 2 508
120 804 DEVILLERS FRANCOIS 00:57:27 11.28 00:05:19 50Séniors 504
121 764 IHRY STEVE 00:57:37 11.25 00:05:20 51Séniors 500
122 702 GRILL CHRISTINE 00:57:41 11.23 00:05:20 8Dames 496
123 729 STRUZIK JULIE 00:57:44 11.22 00:05:21 9Dames 492
124 871 PAISSE GREGORY 00:57:46 11.22 00:05:21 52Séniors 488
125 738 WERGIFOSSE JACKY 00:57:49 11.21 00:05:21 3Vétérans 4 483
126 11 BOSSELOIR ANNICK 00:57:54 11.19 00:05:22 2Ainées 2 479 RDV RUN
127 869 GHARBI BRAHIM 00:57:54 11.19 00:05:22 53Séniors 475
128 674 DUMONT TOM 00:58:11 11.14 00:05:23 5Espoirs H 471
129 705 ISTA FRANCIS* 00:58:14 11.13 00:05:24 20Vétérans 2 467
130 721 NIVARLET FRANCOISE 00:58:18 11.11 00:05:24 10Dames 462
131 750 BARTOCCI DANILO 00:58:22 11.1 00:05:24 21Vétérans 2 458
132 619 WILKIN MAX 00:58:26 11.09 00:05:25 19Vétérans 1 454
133 733 TOUSSAINT THIERRY 00:58:44 11.03 00:05:26 22Vétérans 2 450
134 375 LELOUP DOMINIQUE 00:58:44 11.03 00:05:26 3Ainées 2 446 RDV RUN BEYNE
135 724 PIRO CALOGERO 00:58:46 11.03 00:05:26 9Vétérans 3 442
136 846 BANGELS XAVIER 00:58:52 11.01 00:05:27 54Séniors 438
137 827 JAMAR NICOLAS 00:58:55 11 00:05:27 55Séniors 433
138 777 RUZZICONI ERIC 00:58:56 11 00:05:27 23Vétérans 2 429
139 845 GAUTIER STEVEN 00:59:00 10.98 00:05:28 56Séniors 425
140 866 ROSATO LIONEL 00:59:03 10.97 00:05:28 57Séniors 421
141 610 BURHENNE MICHELLE 00:59:04 10.97 00:05:28 10Ainées 1 417
142 147 DRIESSENS PIERRE 00:59:09 10.96 00:05:29 4Vétérans 4 412 SERUNNERS
143 872 LAGODZRI FABRICE 00:59:21 10.92 00:05:30 20Vétérans 1 408
144 633 LANGE CATHERINE 00:59:31 10.89 00:05:31 11Dames 404
145 86 TERWAGNE QUENTIN 00:59:40 10.86 00:05:31 58Séniors 400
146 58 BOURSIE JOSEPH 00:59:47 10.84 00:05:32 5Vétérans 4 396
147 710 LAMBERT SÉVERINE 01:00:01 10.8 00:05:33 11Ainées 1 392
148 726 RENAERS SOPHIE 01:00:22 10.73 00:05:35 12Dames 388
149 626 FRANCILLO JOHANNA 01:00:31 10.71 00:05:36 13Dames 383
150 693 DUBOURG ANAIS 01:00:31 10.71 00:05:36 14Dames 379
151 785 BRABANT JEAN-JACQUES 01:00:35 10.7 00:05:37 10Vétérans 3 375
152 823 ACQUISTAPACE FRANÇOIS 01:00:41 10.68 00:05:37 24Vétérans 2 371
153 688 DECKERS SYLVIE 01:00:43 10.67 00:05:37 15Dames 367
154 696 GALLO FABIO 01:00:55 10.64 00:05:38 25Vétérans 2 362
155 830 SCHYNS JEAN-CHRISTOPHE 01:00:59 10.63 00:05:39 21Vétérans 1 358
156 772 VANDEWEYER LUDIVINE 01:01:01 10.62 00:05:39 12Ainées 1 354
157 811 ANCION JEAN-PASCAL 01:01:06 10.61 00:05:39 26Vétérans 2 350
158 758 JURDAN PATRICK 01:01:08 10.6 00:05:40 27Vétérans 2 346
159 716 MOLITOR NATHALIE 01:01:14 10.58 00:05:40 4Ainées 2 342
160 795 NOWAK BERNARD 01:01:21 10.56 00:05:41 28Vétérans 2 338
161 783 JASON JULIE 01:01:23 10.56 00:05:41 16Dames 333
162 635 BEUSINNE FABIENNE 01:01:35 10.52 00:05:42 5Ainées 2 329
163 809 SCHUERMANS SUZANNE 01:01:46 10.49 00:05:43 6Ainées 2 325
164 611 DOHOGNE SYLVIE 01:02:02 10.45 00:05:45 13Ainées 1 321
165 612 GREGOIRE THIERY 01:02:02 10.45 00:05:45 22Vétérans 1 317
166 770 PRESTI VINCENT 01:02:04 10.44 00:05:45 29Vétérans 2 312
167 861 PAQUAY YANNICK 01:02:28 10.37 00:05:47 59Séniors 308
168 801 HAMOIR JULIEN 01:02:38 10.35 00:05:48 60Séniors 304
169 740 SZWAJKAJZER HONORINA 01:02:42 10.33 00:05:48 2Ainées 3 300
170 839 DURBUY LAURENCE 01:03:15 10.25 00:05:51 14Ainées 1 296
171 767 THIRY LAETITIA 01:03:22 10.23 00:05:52 17Dames 292
172 708 LAGROTTERIA ANGELA 01:03:39 10.18 00:05:54 15Ainées 1 288
173 847 BONHOMME JUSTINE 01:03:41 10.18 00:05:54 18Dames 283
174 852 ISABELLA MARTINA 01:03:56 10.14 00:05:55 16Ainées 1 279
175 851 VANDERSMISSEN CHRISTEL 01:03:58 10.13 00:05:55 17Ainées 1 275
176 751 DERBANI NORA 01:04:04 10.11 00:05:56 19Dames 271
177 853 MERTENS COLETTE 01:04:12 10.09 00:05:57 18Ainées 1 267
178 784 BIHAIN MARIE 01:04:13 10.09 00:05:57 20Dames 262
179 802 KEPPENNE EVELYNE 01:04:26 10.06 00:05:58 21Dames 258
180 863 PETERS PATRICK 01:04:58 9.97 00:06:01 11Vétérans 3 254
181 681 CASTIGLIONE ANTONELLA 01:05:03 9.96 00:06:01 7Ainées 2 250
182 717 MOONEN OLIVIA 01:05:04 9.96 00:06:01 22Dames 246
183 628 PARELLO ANGELO 01:05:25 9.91 00:06:03 23Vétérans 1 242
184 113 PERFETTO ELISA 01:05:28 9.9 00:06:04 3Ainées 3 238 AMC MEHAGNE
185 714 MEURENS BENEDICTE 01:05:28 9.9 00:06:04 19Ainées 1 233
186 813 PANARIELLO FABIAN 01:05:29 9.9 00:06:04 61Séniors 229
187 682 CHABOT CAROLINE 01:05:30 9.89 00:06:04 23Dames 225
188 687 CROMMEN OLIVIER 01:05:31 9.89 00:06:04 24Vétérans 1 221
189 727 RIVERA VINCENT 01:05:31 9.89 00:06:04 25Vétérans 1 217
190 775 BODSON LAURENCE 01:06:34 9.73 00:06:010 20Ainées 1 212
191 703 HOUART CAROLINE 01:06:43 9.71 00:06:11 21Ainées 1 208
192 608 DOYE SEBASTIEN 01:06:56 9.68 00:06:12 26Vétérans 1 204
193 636 TROISFONTAINE MARINE 01:07:27 9.61 00:06:15 24Dames 200
194 765 FUMANTI GWENDOLINE 01:07:36 9.59 00:06:16 25Dames 196
195 728 SACRE CATHERINE** 01:07:47 9.56 00:06:17 22Ainées 1 192
196 609 VANHEES VICKY 01:08:18 9.49 00:06:19 23Ainées 1 187
197 833 D ACCARDO NATHALIE 01:08:25 9.47 00:06:20 26Dames 183
198 50 MERCIER SYLVIE 01:08:29 9.46 00:06:20 8Ainées 2 179 RDV RUN BEYNE HEUSAY
199 637 TILKIN CAROLINE 01:09:02 9.39 00:06:24 27Dames 175
200 67 VAN LAAR CHRISTINE 01:09:56 9.27 00:06:29 9Ainées 2 171 CJPL
201 52 DEMOL CINDY 01:09:56 9.27 00:06:29 24Ainées 1 167 TEAM SOMJA
202 859 FONTAINE CHRISTIAN 01:09:57 9.26 00:06:29 12Vétérans 3 162
203 601 DEPREZ FREDERIC 01:10:35 9.18 00:06:32 27Vétérans 1 158
204 818 LIURNO GEOFFREY 01:10:47 9.15 00:06:33 62Séniors 154
205 850 MICHELSON WANDA 01:10:53 9.14 00:06:34 25Ainées 1 150
206 849 BARON EMMANUEL 01:10:54 9.14 00:06:34 30Vétérans 2 146
207 368 MICHEL MARILYN 01:11:03 9.12 00:06:35 28Dames 142
208 602 DEPREZ MARION 01:11:08 9.11 00:06:35 ?
209 604 ROUSSELLE AUGUSTIN 01:11:08 9.11 00:06:35 ?
210 617 SLUYSMANS CHRISTELLE 01:11:12 9.1 00:06:36 26Ainées 1 137
211 616 SALVO MARIELLA 01:11:12 9.1 00:06:36 27Ainées 1 133
212 763 SERVAIS ANTOINE 01:11:39 9.04 00:06:38 31Vétérans 2 129
213 800 DUBOIS JULIE 01:11:53 9.01 00:06:39 29Dames 125
214 808 MALEMPRÉ ISABELLE 01:12:21 8.96 00:06:42 28Ainées 1 121
215 374 PAROTTE SIMONE 01:12:25 8.95 00:06:42 4Ainées 3 117
216 788 DELVIGNE MONIQUE 01:13:18 8.84 00:06:47 5Ainées 3 112
217 753 CHIANESE DOMENICO 01:13:19 8.84 00:06:47 6Vétérans 4 108
218 711 LEFEBVRE ANNE 01:13:45 8.79 00:06:50 29Ainées 1 104
219 799 MOUVET FRANCE 01:14:00 8.76 00:06:51 10Ainées 2 100
220 798 LEJEUNE CHRISTOPHE 01:14:01 8.75 00:06:51 32Vétérans 2 96
221 778 WARNOTTE SYLVIA 01:14:28 8.7 00:06:54 11Ainées 2 92
222 707 KARAHAN SEVIL 01:14:31 8.7 00:06:54 30Dames 87
223 60 NIJS DOMINIQUE 01:14:31 8.7 00:06:54 6Ainées 3 83 RUN IN LIÈGE
224 791 COLSON SABINE 01:15:38 8.57 00:07:00 12Ainées 2 79
225 792 DRUMMEN DORINE 01:15:38 8.57 00:07:00 31Dames 75
226 787 IUSSA MARIE 01:15:40 8.56 00:07:00 7Ainées 3 71
227 28 CUYX SABRINA 01:15:43 8.56 00:07:01 32Dames 67
228 10000 PETRY CATHERINE 01:15:58 8.53 00:07:02 30Ainées 1 62
229 836 MIGLIORE JULIE 01:16:17 8.49 00:07:04 33Dames 58
230 835 RIGO JULIEN 01:16:17 8.49 00:07:04 28Vétérans 1 54
231 629 RAMACKER CHRISTOPHE 01:16:18 8.49 00:07:04 29Vétérans 1 50
232 876 SLIMANI IMANE 01:20:06 8.09 00:07:25 34Dames 46
233 725 RENAERS JULIE 01:21:35 7.94 00:07:33 2Espoirs D 42
234 722 PAQUAY JENNIFER 01:21:47 7.92 00:07:34 35Dames 37
235 683 CHANTEUX LAURENT 01:21:48 7.92 00:07:34 63Séniors 33
236 603 ROUSSELLE HURBIN 01:21:49 7.92 00:07:35 ?
237 857 ROSOLINO CHRISTOPHE 01:22:22 7.87 00:07:38 64Séniors 29
238 858 GEORGES JULIE 01:22:23 7.87 00:07:38 36Dames 25
239 732 TOMASI ALEXANDRE 01:22:33 7.85 00:07:39 65Séniors 21
240 684 CHRISTOFFELS SOPHIE 01:22:33 7.85 00:07:39 37Dames 17
241 734 WERY ISABELLE** 01:24:51 7.64 00:07:51 13Ainées 2 12
242 712 MAES SOFIE 01:26:08 7.52 00:07:59 14Ainées 2 8
243 704 HUBERTY INGRID 01:29:54 7.21 00:08:19 38Dames 4
BelleIloise 2019
Distance : 10.8 kms
243 coureurs
Normal Interclubs